createdAt,value
2019-04-30T00:01:18.454Z,6.81
2019-04-30T00:03:50.478Z,6.69
2019-04-30T00:06:18.909Z,6.50
2019-04-30T00:08:45.162Z,6.75
2019-04-30T00:11:17.958Z,6.37
2019-04-30T00:13:38.879Z,6.31
2019-04-30T00:16:05.858Z,6.62
2019-04-30T00:18:37.959Z,6.44
2019-04-30T00:20:59.543Z,6.44
2019-04-30T00:23:27.244Z,6.25
2019-04-30T00:25:53.126Z,6.00
2019-04-30T00:28:19.004Z,6.19
2019-04-30T00:30:47.688Z,6.25
2019-04-30T00:33:15.259Z,6.06
2019-04-30T00:35:40.304Z,6.12
2019-04-30T00:38:06.327Z,6.12
2019-04-30T00:40:32.871Z,6.06
2019-04-30T00:45:27.234Z,6.06
2019-04-30T00:47:53.074Z,5.87
2019-04-30T00:50:19.001Z,5.75
2019-04-30T00:52:45.754Z,5.75
2019-04-30T00:55:11.931Z,5.75
2019-04-30T00:57:43.857Z,5.75
2019-04-30T01:00:08.143Z,5.94
2019-04-30T01:02:52.768Z,5.81
2019-04-30T01:05:20.622Z,5.56
2019-04-30T01:07:50.563Z,5.69
2019-04-30T01:10:15.164Z,5.56
2019-04-30T01:12:47.097Z,5.81
2019-04-30T01:15:13.069Z,5.81
2019-04-30T01:17:38.262Z,5.50
2019-04-30T01:20:06.088Z,5.56
2019-04-30T01:22:32.875Z,5.50
2019-04-30T01:25:01.301Z,5.69
2019-04-30T01:27:28.337Z,5.62
2019-04-30T01:29:54.360Z,5.37
2019-04-30T01:32:21.127Z,5.44
2019-04-30T01:34:49.813Z,5.44
2019-04-30T01:37:15.256Z,5.50
2019-04-30T01:39:43.025Z,5.31
2019-04-30T01:42:11.375Z,5.37
2019-04-30T01:44:43.504Z,5.50
2019-04-30T01:47:08.627Z,5.37
2019-04-30T01:49:41.951Z,5.19
2019-04-30T01:52:16.869Z,5.44
2019-04-30T01:54:42.704Z,5.37
2019-04-30T01:57:13.274Z,5.31
2019-04-30T01:59:58.278Z,5.25
2019-04-30T02:02:28.630Z,5.19
2019-04-30T02:04:54.710Z,5.19
2019-04-30T02:07:20.556Z,5.00
2019-04-30T02:09:46.391Z,5.12
2019-04-30T02:12:12.246Z,5.12
2019-04-30T02:14:39.475Z,5.12
2019-04-30T02:17:05.438Z,5.06
2019-04-30T02:19:31.307Z,5.19
2019-04-30T02:21:58.561Z,4.94
2019-04-30T02:24:24.440Z,5.12
2019-04-30T02:26:50.294Z,5.00
2019-04-30T02:29:16.166Z,5.25
2019-04-30T02:31:42.008Z,5.00
2019-04-30T02:34:10.290Z,4.94
2019-04-30T02:36:40.443Z,4.87
2019-04-30T02:39:06.580Z,5.06
2019-04-30T02:41:33.005Z,4.81
2019-04-30T02:43:59.876Z,5.06
2019-04-30T02:46:31.967Z,5.00
2019-04-30T02:48:55.083Z,4.75
2019-04-30T02:51:24.114Z,5.06
2019-04-30T02:53:53.755Z,4.81
2019-04-30T02:56:20.486Z,4.81
2019-04-30T02:58:46.703Z,4.81
2019-04-30T03:01:12.570Z,4.75
2019-04-30T03:03:39.314Z,4.44
2019-04-30T03:06:06.200Z,4.50
2019-04-30T03:08:32.116Z,4.56
2019-04-30T03:11:00.088Z,4.37
2019-04-30T03:13:25.825Z,4.31
2019-04-30T03:15:51.685Z,4.50
2019-04-30T03:18:20.074Z,4.31
2019-04-30T03:23:40.323Z,4.50
2019-04-30T03:26:06.272Z,4.31
2019-04-30T03:28:32.217Z,4.50
2019-04-30T03:31:03.834Z,4.44
2019-04-30T03:33:25.944Z,4.37
2019-04-30T03:35:53.952Z,4.62
2019-04-30T03:38:20.410Z,4.56
2019-04-30T03:40:46.472Z,4.31
2019-04-30T03:43:12.322Z,4.25
2019-04-30T03:45:40.181Z,4.31
2019-04-30T03:48:06.400Z,4.37
2019-04-30T03:50:48.639Z,4.31
2019-04-30T03:53:00.545Z,4.25
2019-04-30T03:55:26.654Z,4.37
2019-04-30T03:57:52.509Z,4.31
2019-04-30T04:00:20.793Z,4.31
2019-04-30T04:02:46.708Z,4.44
2019-04-30T04:05:14.626Z,4.31
2019-04-30T04:07:52.511Z,4.31
2019-04-30T04:10:29.952Z,4.44
2019-04-30T04:12:55.874Z,4.56
2019-04-30T04:15:21.804Z,4.25
2019-04-30T04:17:50.187Z,4.62
2019-04-30T04:20:15.424Z,4.25
2019-04-30T04:22:41.263Z,4.37
2019-04-30T04:25:12.738Z,4.31
2019-04-30T04:27:35.264Z,4.31
2019-04-30T04:30:01.501Z,4.69
2019-04-30T04:32:30.509Z,4.56
2019-04-30T04:34:55.300Z,4.75
2019-04-30T04:37:21.163Z,4.62
2019-04-30T04:39:50.306Z,4.94
2019-04-30T04:42:14.956Z,4.94
2019-04-30T04:44:40.887Z,4.62
2019-04-30T04:47:11.654Z,4.69
2019-04-30T04:49:35.553Z,4.94
2019-04-30T04:52:01.478Z,4.75
2019-04-30T04:54:29.803Z,4.81
2019-04-30T04:57:10.586Z,4.87
2019-04-30T04:59:24.824Z,5.00
2019-04-30T05:01:50.666Z,5.12
2019-04-30T05:04:16.516Z,5.12
2019-04-30T05:06:42.352Z,5.25
2019-04-30T05:09:09.735Z,5.12
2019-04-30T05:11:35.773Z,5.19
2019-04-30T05:14:01.720Z,5.31
2019-04-30T05:16:28.933Z,5.37
2019-04-30T05:18:54.875Z,5.62
2019-04-30T05:21:20.787Z,5.81
2019-04-30T05:23:46.715Z,5.87
2019-04-30T05:26:12.660Z,5.75
2019-04-30T05:28:39.363Z,6.06
2019-04-30T05:31:05.342Z,6.06
2019-04-30T05:33:31.222Z,6.06
2019-04-30T05:35:59.400Z,6.00
2019-04-30T05:38:25.464Z,6.12
2019-04-30T05:40:51.329Z,6.25
2019-04-30T05:43:19.336Z,6.31
2019-04-30T05:45:45.307Z,6.37
2019-04-30T05:48:11.333Z,6.31
2019-04-30T05:50:38.976Z,6.62
2019-04-30T05:53:05.063Z,6.69
2019-04-30T05:55:31.014Z,6.69
2019-04-30T05:57:59.102Z,6.81
2019-04-30T06:00:24.814Z,6.81
2019-04-30T06:02:50.696Z,7.12
2019-04-30T06:05:18.610Z,6.94
2019-04-30T06:07:44.368Z,7.12
2019-04-30T06:10:14.924Z,7.12
2019-04-30T06:12:45.446Z,7.31
2019-04-30T06:15:13.530Z,7.37
2019-04-30T06:17:41.307Z,7.31
2019-04-30T06:20:17.759Z,7.62
2019-04-30T06:22:35.387Z,7.50
2019-04-30T06:25:01.664Z,7.62
2019-04-30T06:27:29.176Z,7.56
2019-04-30T06:29:55.368Z,7.62
2019-04-30T06:32:21.441Z,7.75
2019-04-30T06:34:49.589Z,7.94
2019-04-30T06:37:15.844Z,8.00
2019-04-30T06:39:41.711Z,8.13
2019-04-30T06:42:12.496Z,8.13
2019-04-30T06:44:39.374Z,8.19
2019-04-30T06:47:03.557Z,8.25
2019-04-30T06:49:29.518Z,8.31
2019-04-30T06:51:55.896Z,8.44
2019-04-30T06:54:21.738Z,8.44
2019-04-30T06:56:48.529Z,8.44
2019-04-30T06:59:14.636Z,8.44
2019-04-30T07:01:40.568Z,8.56
2019-04-30T07:04:06.442Z,8.81
2019-04-30T07:06:36.837Z,9.06
2019-04-30T07:09:10.895Z,9.13
2019-04-30T07:11:39.215Z,9.13
2019-04-30T07:14:05.512Z,9.13
2019-04-30T07:16:31.372Z,9.25
2019-04-30T07:18:58.596Z,9.50
2019-04-30T07:21:24.574Z,9.63
2019-04-30T07:23:50.578Z,9.81
2019-04-30T07:26:22.753Z,9.81
2019-04-30T07:28:51.522Z,9.81
2019-04-30T07:31:14.719Z,10.00
2019-04-30T07:33:41.230Z,9.75
2019-04-30T07:36:09.433Z,9.94
2019-04-30T07:38:35.660Z,9.81
2019-04-30T07:41:02.647Z,10.00
2019-04-30T07:43:28.940Z,10.13
2019-04-30T07:45:54.901Z,10.31
2019-04-30T07:48:26.019Z,10.63
2019-04-30T07:50:51.472Z,10.50
2019-04-30T07:53:16.345Z,10.94
2019-04-30T07:55:42.307Z,11.19
2019-04-30T07:58:09.025Z,11.00
2019-04-30T08:00:35.084Z,11.06
2019-04-30T08:03:05.739Z,11.12
2019-04-30T08:05:33.802Z,11.31
2019-04-30T08:08:16.655Z,11.19
2019-04-30T08:10:29.611Z,11.12
2019-04-30T08:13:08.476Z,11.25
2019-04-30T08:15:29.451Z,11.44
2019-04-30T08:18:03.626Z,11.44
2019-04-30T08:20:23.107Z,11.50
2019-04-30T08:22:49.515Z,11.50
2019-04-30T08:25:15.538Z,12.31
2019-04-30T08:27:41.624Z,12.00
2019-04-30T08:30:20.740Z,12.31
2019-04-30T08:32:35.236Z,12.56
2019-04-30T08:35:01.307Z,12.31
2019-04-30T08:37:28.841Z,12.37
2019-04-30T08:39:54.999Z,12.19
2019-04-30T08:42:30.948Z,12.13
2019-04-30T08:44:48.663Z,12.31
2019-04-30T08:47:14.640Z,12.37
2019-04-30T08:49:41.155Z,12.50
2019-04-30T08:52:07.375Z,12.56
2019-04-30T08:54:34.641Z,12.75
2019-04-30T08:57:00.687Z,12.88
2019-04-30T08:59:26.812Z,13.25
2019-04-30T09:01:52.659Z,13.56
2019-04-30T09:04:20.111Z,13.38
2019-04-30T09:06:46.184Z,13.38
2019-04-30T09:09:14.044Z,13.25
2019-04-30T09:11:51.632Z,13.44
2019-04-30T09:14:08.562Z,13.31
2019-04-30T09:16:34.578Z,13.25
2019-04-30T09:19:00.532Z,13.25
2019-04-30T09:21:26.579Z,13.62
2019-04-30T09:23:55.535Z,13.81
2019-04-30T09:26:21.471Z,13.75
2019-04-30T09:28:49.267Z,13.75
2019-04-30T09:31:15.108Z,13.69
2019-04-30T09:33:40.972Z,13.81
2019-04-30T09:36:06.879Z,13.56
2019-04-30T09:38:32.721Z,13.56
2019-04-30T09:40:59.440Z,13.75
2019-04-30T09:43:25.526Z,13.56
2019-04-30T09:45:51.774Z,13.56
2019-04-30T09:48:18.991Z,13.75
2019-04-30T09:50:45.516Z,13.75
2019-04-30T09:53:11.802Z,13.69
2019-04-30T09:55:40.293Z,13.88
2019-04-30T09:58:16.252Z,13.94
2019-04-30T10:00:33.453Z,14.06
2019-04-30T10:03:00.356Z,14.56
2019-04-30T10:05:26.572Z,15.06
2019-04-30T10:07:53.292Z,15.19
2019-04-30T10:10:21.229Z,14.81
2019-04-30T10:12:49.162Z,15.13
2019-04-30T10:15:19.394Z,14.50
2019-04-30T10:17:47.276Z,14.63
2019-04-30T10:20:14.924Z,14.75
2019-04-30T10:22:40.791Z,14.75
2019-04-30T10:25:09.288Z,14.56
2019-04-30T10:27:35.273Z,14.75
2019-04-30T10:30:01.154Z,14.69
2019-04-30T10:32:27.438Z,14.56
2019-04-30T10:34:55.206Z,14.56
2019-04-30T10:37:21.129Z,14.75
2019-04-30T10:39:48.975Z,14.87
2019-04-30T10:42:15.071Z,14.63
2019-04-30T10:44:41.242Z,14.75
2019-04-30T10:47:09.144Z,14.69
2019-04-30T10:49:34.874Z,14.81
2019-04-30T10:52:01.165Z,14.87
2019-04-30T10:54:28.978Z,14.87
2019-04-30T10:56:54.997Z,14.94
2019-04-30T10:59:20.882Z,14.94
2019-04-30T11:01:46.832Z,14.87
2019-04-30T11:04:15.625Z,15.00
2019-04-30T11:06:41.604Z,15.06
2019-04-30T11:09:07.530Z,15.06
2019-04-30T11:11:33.496Z,15.00
2019-04-30T11:13:59.375Z,15.19
2019-04-30T11:16:25.324Z,15.25
2019-04-30T11:18:51.497Z,15.38
2019-04-30T11:21:19.663Z,15.44
2019-04-30T11:23:45.554Z,15.94
2019-04-30T11:26:13.821Z,16.37
2019-04-30T11:28:40.259Z,15.94
2019-04-30T11:31:17.533Z,16.06
2019-04-30T11:33:43.975Z,16.25
2019-04-30T11:36:10.880Z,15.63
2019-04-30T11:38:38.798Z,15.75
2019-04-30T11:41:04.790Z,15.75
2019-04-30T11:43:30.828Z,15.69
2019-04-30T11:46:00.679Z,15.69
2019-04-30T11:48:28.914Z,15.81
2019-04-30T11:50:55.064Z,15.81
2019-04-30T11:53:27.609Z,15.88
2019-04-30T11:55:49.259Z,15.81
2019-04-30T11:58:21.762Z,15.88
2019-04-30T12:00:45.132Z,16.12
2019-04-30T12:03:11.012Z,16.25
2019-04-30T12:05:38.849Z,16.00
2019-04-30T12:08:12.889Z,16.25
2019-04-30T12:10:43.622Z,16.19
2019-04-30T12:13:26.575Z,16.19
2019-04-30T12:15:53.536Z,16.06
2019-04-30T12:18:19.456Z,16.25
2019-04-30T12:20:45.298Z,16.44
2019-04-30T12:23:11.928Z,16.50
2019-04-30T12:25:38.759Z,16.19
2019-04-30T12:28:06.009Z,16.19
2019-04-30T12:30:32.003Z,16.12
2019-04-30T12:32:59.067Z,16.25
2019-04-30T12:35:25.093Z,16.37
2019-04-30T12:37:52.487Z,16.50
2019-04-30T12:40:28.114Z,16.50
2019-04-30T12:42:48.207Z,16.37
2019-04-30T12:45:14.405Z,16.44
2019-04-30T12:47:42.207Z,16.62
2019-04-30T12:50:16.567Z,16.50
2019-04-30T12:52:49.409Z,16.44
2019-04-30T12:55:32.165Z,16.44
2019-04-30T12:58:01.606Z,16.62
2019-04-30T13:00:29.345Z,16.62
2019-04-30T13:02:55.648Z,16.56
2019-04-30T13:05:21.537Z,16.44
2019-04-30T13:07:49.767Z,16.50
2019-04-30T13:10:15.910Z,16.87
2019-04-30T13:12:42.871Z,16.94
2019-04-30T13:15:09.645Z,16.87
2019-04-30T13:17:35.631Z,16.87
2019-04-30T13:20:01.768Z,17.19
2019-04-30T13:22:29.016Z,17.00
2019-04-30T13:24:55.068Z,17.00
2019-04-30T13:27:22.343Z,17.06
2019-04-30T13:29:50.611Z,17.19
2019-04-30T13:32:27.926Z,17.12
2019-04-30T13:34:46.213Z,17.12
2019-04-30T13:37:12.159Z,17.25
2019-04-30T13:39:50.228Z,16.94
2019-04-30T13:42:17.493Z,17.06
2019-04-30T13:44:39.461Z,17.12
2019-04-30T13:47:05.431Z,17.19
2019-04-30T13:49:31.326Z,18.00
2019-04-30T13:51:57.183Z,17.44
2019-04-30T13:54:23.086Z,18.06
2019-04-30T13:56:49.507Z,18.19
2019-04-30T13:59:15.355Z,18.00
2019-04-30T14:01:41.214Z,17.87
2019-04-30T14:04:12.166Z,17.81
2019-04-30T14:06:48.808Z,18.37
2019-04-30T14:09:28.736Z,18.06
2019-04-30T14:11:54.711Z,18.00
2019-04-30T14:14:20.580Z,17.87
2019-04-30T14:16:46.483Z,17.81
2019-04-30T14:19:12.363Z,17.62
2019-04-30T14:21:39.136Z,17.50
2019-04-30T14:24:05.175Z,17.56
2019-04-30T14:26:32.935Z,17.44
2019-04-30T14:28:58.897Z,17.44
2019-04-30T14:31:26.416Z,17.06
2019-04-30T14:33:52.583Z,17.31
2019-04-30T14:36:19.410Z,16.94
2019-04-30T14:38:45.455Z,17.06
2019-04-30T14:41:11.985Z,16.75
2019-04-30T14:43:43.838Z,16.87
2019-04-30T14:46:30.765Z,16.87
2019-04-30T14:49:14.560Z,17.19
2019-04-30T14:51:38.633Z,17.31
2019-04-30T14:54:15.568Z,17.44
2019-04-30T14:56:51.960Z,17.62
2019-04-30T14:59:36.449Z,17.62
2019-04-30T15:02:08.904Z,17.81
2019-04-30T15:04:34.926Z,17.56
2019-04-30T15:07:00.871Z,17.62
2019-04-30T15:09:26.706Z,17.69
2019-04-30T15:11:52.555Z,17.87
2019-04-30T15:14:18.395Z,17.31
2019-04-30T15:16:44.239Z,17.31
2019-04-30T15:19:10.199Z,17.19
2019-04-30T15:21:36.047Z,17.31
2019-04-30T15:24:09.613Z,17.69
2019-04-30T15:26:35.462Z,17.87
2019-04-30T15:29:01.304Z,18.37
2019-04-30T15:31:27.187Z,18.37
2019-04-30T15:34:02.830Z,18.19
2019-04-30T15:36:26.911Z,18.00
2019-04-30T15:39:01.746Z,17.94
2019-04-30T15:41:28.680Z,17.94
2019-04-30T15:43:54.527Z,17.87
2019-04-30T15:46:20.389Z,18.00
2019-04-30T15:48:46.380Z,18.12
2019-04-30T15:51:12.319Z,18.06
2019-04-30T15:53:38.162Z,18.31
2019-04-30T15:56:04.032Z,18.31
2019-04-30T15:58:31.808Z,18.06
2019-04-30T16:00:59.454Z,17.56
2019-04-30T16:03:30.186Z,17.75
2019-04-30T16:05:56.120Z,17.44
2019-04-30T16:08:23.933Z,17.44
2019-04-30T16:10:52.080Z,17.12
2019-04-30T16:13:23.220Z,17.44
2019-04-30T16:15:49.222Z,17.37
2019-04-30T16:18:15.235Z,17.62
2019-04-30T16:20:41.095Z,17.94
2019-04-30T16:23:06.952Z,18.56
2019-04-30T16:25:32.768Z,18.75
2019-04-30T16:27:58.610Z,18.25
2019-04-30T16:30:24.432Z,18.87
2019-04-30T16:32:50.804Z,19.12
2019-04-30T16:35:16.730Z,19.25
2019-04-30T16:37:42.570Z,18.87
2019-04-30T16:40:10.423Z,18.31
2019-04-30T16:42:36.174Z,18.50
2019-04-30T16:45:04.216Z,18.19
2019-04-30T16:47:30.173Z,18.19
2019-04-30T16:49:56.012Z,17.75
2019-04-30T16:52:21.987Z,18.00
2019-04-30T16:54:49.566Z,18.12
2019-04-30T16:57:15.656Z,18.31
2019-04-30T16:59:41.874Z,18.12
2019-04-30T17:02:09.365Z,18.12
2019-04-30T17:04:39.030Z,18.06
2019-04-30T17:07:15.983Z,18.12
2019-04-30T17:09:43.818Z,18.12
2019-04-30T17:12:11.609Z,17.81
2019-04-30T17:14:39.351Z,17.94
2019-04-30T17:17:06.158Z,17.69
2019-04-30T17:19:32.085Z,17.81
2019-04-30T17:21:58.023Z,17.81
2019-04-30T17:24:23.843Z,17.69
2019-04-30T17:26:49.819Z,17.44
2019-04-30T17:29:15.968Z,17.75
2019-04-30T17:31:42.862Z,17.81
2019-04-30T17:34:08.734Z,17.94
2019-04-30T17:36:34.559Z,17.94
2019-04-30T17:39:00.380Z,17.62
2019-04-30T17:41:26.220Z,17.81
2019-04-30T17:43:52.086Z,17.50
2019-04-30T17:46:19.963Z,17.81
2019-04-30T17:48:45.745Z,17.56
2019-04-30T17:51:11.585Z,17.44
2019-04-30T17:53:39.335Z,17.56
2019-04-30T17:56:05.191Z,17.56
2019-04-30T17:58:31.043Z,17.62
2019-04-30T18:00:59.768Z,17.50
2019-04-30T18:03:25.823Z,17.69
2019-04-30T18:05:51.871Z,17.50
2019-04-30T18:08:17.918Z,17.50
2019-04-30T18:10:44.069Z,16.87
2019-04-30T18:13:09.916Z,16.69
2019-04-30T18:15:35.817Z,16.94
2019-04-30T18:18:06.236Z,16.69
2019-04-30T18:20:34.018Z,16.94
2019-04-30T18:23:01.800Z,16.56
2019-04-30T18:25:32.587Z,16.69
2019-04-30T18:28:02.419Z,16.69
2019-04-30T18:30:30.291Z,16.69
2019-04-30T18:32:56.212Z,16.75
2019-04-30T18:35:22.172Z,16.56
2019-04-30T18:37:48.588Z,16.69
2019-04-30T18:40:14.682Z,16.44
2019-04-30T18:42:40.662Z,16.25
2019-04-30T18:45:06.616Z,16.25
2019-04-30T18:47:32.446Z,16.25
2019-04-30T18:49:59.427Z,16.25
2019-04-30T18:52:25.452Z,16.19
2019-04-30T18:54:51.289Z,16.25
2019-04-30T18:57:17.250Z,16.06
2019-04-30T18:59:43.093Z,15.88
2019-04-30T19:02:10.811Z,15.69
2019-04-30T19:04:38.877Z,15.63
2019-04-30T19:07:06.331Z,15.25
2019-04-30T19:09:34.180Z,15.19
2019-04-30T19:12:01.922Z,14.94
2019-04-30T19:14:41.579Z,14.94
2019-04-30T19:17:27.169Z,14.87
2019-04-30T19:19:54.944Z,14.69
2019-04-30T19:22:20.770Z,14.63
2019-04-30T19:24:55.472Z,14.69
2019-04-30T19:27:14.360Z,14.44
2019-04-30T19:29:40.288Z,14.38
2019-04-30T19:32:06.125Z,14.31
2019-04-30T19:34:31.955Z,14.31
2019-04-30T19:36:58.604Z,14.25
2019-04-30T19:39:24.617Z,14.19
2019-04-30T19:41:50.559Z,14.13
2019-04-30T19:44:16.397Z,14.13
2019-04-30T19:46:42.332Z,14.06
2019-04-30T19:49:09.825Z,14.00
2019-04-30T19:51:35.795Z,13.88
2019-04-30T19:54:01.663Z,13.94
2019-04-30T19:56:29.410Z,13.88
2019-04-30T19:59:02.139Z,13.81
2019-04-30T20:01:23.019Z,13.69
2019-04-30T20:03:48.861Z,13.69
2019-04-30T20:06:15.185Z,13.62
2019-04-30T20:08:41.050Z,13.19
2019-04-30T20:11:07.376Z,13.00
2019-04-30T20:13:37.046Z,12.94
2019-04-30T20:16:01.029Z,12.88
2019-04-30T20:18:29.077Z,12.88
2019-04-30T20:20:56.551Z,12.81
2019-04-30T20:23:22.468Z,12.81
2019-04-30T20:25:48.304Z,12.75
2019-04-30T20:28:14.252Z,12.75
2019-04-30T20:30:40.128Z,12.75
2019-04-30T20:33:05.979Z,12.69
2019-04-30T20:35:31.842Z,12.69
2019-04-30T20:38:16.283Z,12.63
2019-04-30T20:40:56.723Z,12.63
2019-04-30T20:43:11.786Z,12.63
2019-04-30T20:45:37.641Z,12.63
2019-04-30T20:48:03.582Z,12.50
2019-04-30T20:50:29.442Z,12.56
2019-04-30T20:52:55.408Z,12.56
2019-04-30T20:55:21.583Z,12.56
2019-04-30T20:57:49.407Z,12.56
2019-04-30T21:00:15.383Z,12.50
2019-04-30T21:02:41.227Z,12.69
2019-04-30T21:05:07.239Z,12.56
2019-04-30T21:07:33.267Z,12.63
2019-04-30T21:10:00.438Z,12.63
2019-04-30T21:12:28.697Z,12.69
2019-04-30T21:14:54.271Z,12.69
2019-04-30T21:17:20.158Z,12.69
2019-04-30T21:19:46.143Z,12.63
2019-04-30T21:22:12.099Z,12.69
2019-04-30T21:24:37.976Z,12.75
2019-04-30T21:27:04.228Z,12.69
2019-04-30T21:29:30.483Z,12.75
2019-04-30T21:31:58.232Z,12.75
2019-04-30T21:34:26.339Z,12.69
2019-04-30T21:36:52.318Z,12.75
2019-04-30T21:39:19.994Z,12.69
2019-04-30T21:41:45.932Z,12.75
2019-04-30T21:44:11.786Z,12.75
2019-04-30T21:46:39.397Z,12.75
2019-04-30T21:49:05.355Z,12.75
2019-04-30T21:51:31.262Z,12.75
2019-04-30T21:53:58.366Z,12.81
2019-04-30T21:56:24.296Z,12.75
2019-04-30T21:58:50.338Z,12.75
2019-04-30T22:01:18.196Z,12.75
2019-04-30T22:03:45.226Z,12.75
2019-04-30T22:06:11.154Z,12.75
2019-04-30T22:08:38.690Z,12.75
2019-04-30T22:11:04.742Z,12.81
2019-04-30T22:13:30.612Z,12.81
2019-04-30T22:15:56.470Z,12.75
2019-04-30T22:18:22.356Z,12.75
2019-04-30T22:20:49.828Z,12.81
2019-04-30T22:23:15.809Z,12.75
2019-04-30T22:25:41.658Z,12.75
2019-04-30T22:28:07.812Z,12.75
2019-04-30T22:30:33.665Z,12.81
2019-04-30T22:32:59.668Z,12.81
2019-04-30T22:35:27.442Z,12.81
2019-04-30T22:37:55.526Z,12.75
2019-04-30T22:40:21.458Z,12.81
2019-04-30T22:42:49.450Z,12.81
2019-04-30T22:45:17.155Z,12.81
2019-04-30T22:47:42.991Z,12.88
2019-04-30T22:50:08.952Z,12.94
2019-04-30T22:52:34.879Z,12.94
2019-04-30T22:55:00.706Z,12.88
2019-04-30T22:57:26.530Z,12.94
2019-04-30T22:59:52.407Z,12.94
2019-04-30T23:02:31.776Z,12.94
2019-04-30T23:04:59.110Z,12.88
2019-04-30T23:07:24.978Z,12.81
2019-04-30T23:09:50.799Z,12.81
2019-04-30T23:12:16.659Z,12.81
2019-04-30T23:14:42.519Z,12.81
2019-04-30T23:17:08.746Z,12.81
2019-04-30T23:19:34.615Z,12.88
2019-04-30T23:22:01.149Z,12.81
2019-04-30T23:24:26.995Z,12.88
2019-04-30T23:26:52.842Z,12.81
2019-04-30T23:29:18.782Z,12.81
2019-04-30T23:31:44.606Z,12.81
2019-04-30T23:34:17.693Z,12.75
2019-04-30T23:36:38.194Z,12.63
2019-04-30T23:39:04.515Z,12.56
2019-04-30T23:41:30.359Z,12.44
2019-04-30T23:43:56.198Z,12.37
2019-04-30T23:46:22.023Z,12.44
2019-04-30T23:48:47.868Z,12.44
2019-04-30T23:51:13.706Z,12.31
2019-04-30T23:53:39.559Z,12.31
2019-04-30T23:56:05.423Z,12.19
2019-04-30T23:58:31.254Z,12.13
